sensor_id;sensor_type;location;lat;lon;timestamp;pressure;altitude;pressure_sealevel;temperature;humidity
51083;BME280;37131;42.694;23.350;2024-02-21T00:00:41;96143.16;;;5.23;75.21
51083;BME280;37131;42.694;23.350;2024-02-21T00:03:07;96146.28;;;5.16;74.49
51083;BME280;37131;42.694;23.350;2024-02-21T00:05:32;96144.03;;;5.11;75.51
51083;BME280;37131;42.694;23.350;2024-02-21T00:07:59;96133.97;;;5.21;75.54
51083;BME280;37131;42.694;23.350;2024-02-21T00:10:24;96139.13;;;5.08;74.19
51083;BME280;37131;42.694;23.350;2024-02-21T00:12:50;96135.47;;;4.99;75.31
51083;BME280;37131;42.694;23.350;2024-02-21T00:15:16;96140.13;;;5.18;74.59
51083;BME280;37131;42.694;23.350;2024-02-21T00:17:43;96139.31;;;5.18;74.71
51083;BME280;37131;42.694;23.350;2024-02-21T00:20:09;96140.16;;;5.06;75.41
51083;BME280;37131;42.694;23.350;2024-02-21T00:22:35;96135.53;;;5.11;75.24
51083;BME280;37131;42.694;23.350;2024-02-21T00:25:01;96134.94;;;5.07;75.66
51083;BME280;37131;42.694;23.350;2024-02-21T00:27:26;96139.63;;;5.13;74.88
51083;BME280;37131;42.694;23.350;2024-02-21T00:29:51;96133.50;;;5.03;74.29
51083;BME280;37131;42.694;23.350;2024-02-21T00:32:17;96134.53;;;5.01;75.94
51083;BME280;37131;42.694;23.350;2024-02-21T00:34:43;96132.59;;;4.91;76.05
51083;BME280;37131;42.694;23.350;2024-02-21T00:37:09;96126.78;;;4.89;74.95
51083;BME280;37131;42.694;23.350;2024-02-21T00:39:34;96133.63;;;4.89;76.33
51083;BME280;37131;42.694;23.350;2024-02-21T00:41:59;96128.84;;;4.84;75.27
51083;BME280;37131;42.694;23.350;2024-02-21T00:44:25;96122.47;;;4.90;76.05
51083;BME280;37131;42.694;23.350;2024-02-21T00:46:50;96121.97;;;4.85;76.19
51083;BME280;37131;42.694;23.350;2024-02-21T00:49:17;96124.72;;;4.94;75.59
51083;BME280;37131;42.694;23.350;2024-02-21T00:51:42;96121.25;;;4.83;76.44
51083;BME280;37131;42.694;23.350;2024-02-21T00:54:10;96118.50;;;4.86;76.01
51083;BME280;37131;42.694;23.350;2024-02-21T00:56:36;96121.44;;;4.92;76.39
51083;BME280;37131;42.694;23.350;2024-02-21T00:59:01;96124.13;;;4.91;75.69
51083;BME280;37131;42.694;23.350;2024-02-21T01:01:27;96114.28;;;4.97;76.56
51083;BME280;37131;42.694;23.350;2024-02-21T01:03:52;96108.56;;;4.81;75.85
51083;BME280;37131;42.694;23.350;2024-02-21T01:06:19;96103.06;;;4.75;76.37
51083;BME280;37131;42.694;23.350;2024-02-21T01:08:46;96099.50;;;4.64;76.14
51083;BME280;37131;42.694;23.350;2024-02-21T01:11:11;96103.88;;;4.75;75.94
51083;BME280;37131;42.694;23.350;2024-02-21T01:13:37;96103.13;;;4.86;75.50
51083;BME280;37131;42.694;23.350;2024-02-21T01:16:02;96100.38;;;4.89;76.72
51083;BME280;37131;42.694;23.350;2024-02-21T01:18:27;96098.03;;;4.86;77.01
51083;BME280;37131;42.694;23.350;2024-02-21T01:20:53;96096.56;;;4.94;75.38
51083;BME280;37131;42.694;23.350;2024-02-21T01:23:18;96093.09;;;4.95;74.89
51083;BME280;37131;42.694;23.350;2024-02-21T01:25:43;96090.88;;;4.78;75.49
51083;BME280;37131;42.694;23.350;2024-02-21T01:28:09;96092.00;;;4.74;76.88
51083;BME280;37131;42.694;23.350;2024-02-21T01:30:34;96093.50;;;4.89;75.26
51083;BME280;37131;42.694;23.350;2024-02-21T01:33:00;96087.66;;;5.00;76.28
51083;BME280;37131;42.694;23.350;2024-02-21T01:35:25;96087.66;;;5.00;75.18
51083;BME280;37131;42.694;23.350;2024-02-21T01:37:51;96088.28;;;4.91;75.76
51083;BME280;37131;42.694;23.350;2024-02-21T01:40:17;96080.78;;;5.01;75.64
51083;BME280;37131;42.694;23.350;2024-02-21T01:42:45;96083.06;;;4.92;76.60
51083;BME280;37131;42.694;23.350;2024-02-21T01:45:11;96077.72;;;4.95;75.04
51083;BME280;37131;42.694;23.350;2024-02-21T01:47:37;96073.53;;;4.94;76.36
51083;BME280;37131;42.694;23.350;2024-02-21T01:50:03;96077.44;;;4.87;75.04
51083;BME280;37131;42.694;23.350;2024-02-21T01:52:30;96074.84;;;5.00;76.27
51083;BME280;37131;42.694;23.350;2024-02-21T01:54:57;96073.00;;;5.02;73.63
51083;BME280;37131;42.694;23.350;2024-02-21T01:57:22;96064.78;;;5.10;73.49
51083;BME280;37131;42.694;23.350;2024-02-21T01:59:48;96073.50;;;5.07;73.23
51083;BME280;37131;42.694;23.350;2024-02-21T02:02:14;96068.38;;;5.07;73.77
51083;BME280;37131;42.694;23.350;2024-02-21T02:04:40;96072.91;;;5.04;74.12
51083;BME280;37131;42.694;23.350;2024-02-21T02:07:06;96067.84;;;5.15;74.31
51083;BME280;37131;42.694;23.350;2024-02-21T02:09:32;96072.84;;;5.16;74.52
51083;BME280;37131;42.694;23.350;2024-02-21T02:11:58;96080.66;;;5.15;74.80
51083;BME280;37131;42.694;23.350;2024-02-21T02:14:25;96076.16;;;5.06;74.10
51083;BME280;37131;42.694;23.350;2024-02-21T02:16:50;96068.66;;;5.15;74.26
51083;BME280;37131;42.694;23.350;2024-02-21T02:19:16;96066.56;;;5.20;73.37
51083;BME280;37131;42.694;23.350;2024-02-21T02:21:45;96065.78;;;5.20;73.39
51083;BME280;37131;42.694;23.350;2024-02-21T02:24:11;96065.19;;;5.16;72.12
51083;BME280;37131;42.694;23.350;2024-02-21T02:26:39;96057.53;;;5.04;74.33
51083;BME280;37131;42.694;23.350;2024-02-21T02:29:05;96059.50;;;5.00;73.05
51083;BME280;37131;42.694;23.350;2024-02-21T02:31:30;96061.63;;;5.06;74.70
51083;BME280;37131;42.694;23.350;2024-02-21T02:33:55;96056.66;;;4.92;73.44
51083;BME280;37131;42.694;23.350;2024-02-21T02:36:21;96056.53;;;4.93;73.98
51083;BME280;37131;42.694;23.350;2024-02-21T02:38:46;96054.41;;;4.87;75.97
51083;BME280;37131;42.694;23.350;2024-02-21T02:41:12;96053.00;;;4.71;74.96
51083;BME280;37131;42.694;23.350;2024-02-21T02:43:37;96055.41;;;4.61;75.07
51083;BME280;37131;42.694;23.350;2024-02-21T02:46:03;96047.75;;;4.48;77.30
51083;BME280;37131;42.694;23.350;2024-02-21T02:48:29;96044.28;;;4.49;77.15
51083;BME280;37131;42.694;23.350;2024-02-21T02:50:54;96058.69;;;4.63;75.35
51083;BME280;37131;42.694;23.350;2024-02-21T02:53:20;96060.16;;;4.78;76.21
51083;BME280;37131;42.694;23.350;2024-02-21T02:55:45;96062.09;;;4.87;75.65
51083;BME280;37131;42.694;23.350;2024-02-21T02:58:11;96058.31;;;4.80;76.36
51083;BME280;37131;42.694;23.350;2024-02-21T03:00:36;96056.28;;;4.73;75.31
51083;BME280;37131;42.694;23.350;2024-02-21T03:03:04;96058.03;;;4.72;75.98
51083;BME280;37131;42.694;23.350;2024-02-21T03:05:30;96055.81;;;4.68;75.73
51083;BME280;37131;42.694;23.350;2024-02-21T03:07:55;96054.53;;;4.73;76.27
51083;BME280;37131;42.694;23.350;2024-02-21T03:10:20;96052.59;;;4.77;75.23
51083;BME280;37131;42.694;23.350;2024-02-21T03:12:46;96063.31;;;4.82;75.64
51083;BME280;37131;42.694;23.350;2024-02-21T03:15:12;96064.78;;;4.73;75.19
51083;BME280;37131;42.694;23.350;2024-02-21T03:17:37;96070.69;;;4.86;76.31
51083;BME280;37131;42.694;23.350;2024-02-21T03:20:04;96073.34;;;4.85;75.28
51083;BME280;37131;42.694;23.350;2024-02-21T03:22:31;96067.03;;;4.78;76.34
51083;BME280;37131;42.694;23.350;2024-02-21T03:24:56;96070.38;;;4.91;73.99
51083;BME280;37131;42.694;23.350;2024-02-21T03:27:22;96074.13;;;4.98;74.05
51083;BME280;37131;42.694;23.350;2024-02-21T03:29:47;96075.59;;;4.89;74.63
51083;BME280;37131;42.694;23.350;2024-02-21T03:32:13;96076.69;;;4.98;74.71
51083;BME280;37131;42.694;23.350;2024-02-21T03:34:38;96077.50;;;4.98;74.29
51083;BME280;37131;42.694;23.350;2024-02-21T03:37:03;96078.38;;;4.86;76.13
51083;BME280;37131;42.694;23.350;2024-02-21T03:39:32;96089.22;;;4.90;74.92
51083;BME280;37131;42.694;23.350;2024-02-21T03:41:58;96086.03;;;4.86;75.77
51083;BME280;37131;42.694;23.350;2024-02-21T03:44:26;96087.59;;;4.76;75.03
51083;BME280;37131;42.694;23.350;2024-02-21T03:46:51;96086.13;;;4.97;74.44
51083;BME280;37131;42.694;23.350;2024-02-21T03:49:16;96091.75;;;5.03;74.42
51083;BME280;37131;42.694;23.350;2024-02-21T03:51:43;96087.34;;;4.92;75.46
51083;BME280;37131;42.694;23.350;2024-02-21T03:54:08;96092.88;;;4.98;74.46
51083;BME280;37131;42.694;23.350;2024-02-21T03:56:37;96087.06;;;4.84;74.83
51083;BME280;37131;42.694;23.350;2024-02-21T03:59:02;96090.41;;;4.97;73.76
51083;BME280;37131;42.694;23.350;2024-02-21T04:01:28;96086.09;;;5.10;74.26
51083;BME280;37131;42.694;23.350;2024-02-21T04:03:53;96092.03;;;5.11;72.87
51083;BME280;37131;42.694;23.350;2024-02-21T04:06:19;96089.47;;;5.11;72.88
51083;BME280;37131;42.694;23.350;2024-02-21T04:08:45;96092.72;;;5.13;74.51
51083;BME280;37131;42.694;23.350;2024-02-21T04:11:10;96086.19;;;5.09;74.23
51083;BME280;37131;42.694;23.350;2024-02-21T04:13:35;96080.25;;;5.08;74.89
51083;BME280;37131;42.694;23.350;2024-02-21T04:16:01;96085.66;;;5.16;73.91
51083;BME280;37131;42.694;23.350;2024-02-21T04:18:26;96083.03;;;5.05;73.18
51083;BME280;37131;42.694;23.350;2024-02-21T04:20:52;96083.44;;;4.99;73.81
51083;BME280;37131;42.694;23.350;2024-02-21T04:23:17;96087.16;;;4.95;75.15
51083;BME280;37131;42.694;23.350;2024-02-21T04:25:42;96086.22;;;4.96;73.81
51083;BME280;37131;42.694;23.350;2024-02-21T04:28:08;96079.53;;;5.06;73.90
51083;BME280;37131;42.694;23.350;2024-02-21T04:30:36;96081.22;;;4.94;74.00
51083;BME280;37131;42.694;23.350;2024-02-21T04:33:01;96078.03;;;4.91;74.26
51083;BME280;37131;42.694;23.350;2024-02-21T04:35:26;96088.09;;;4.81;75.33
51083;BME280;37131;42.694;23.350;2024-02-21T04:37:52;96089.53;;;4.85;74.16
51083;BME280;37131;42.694;23.350;2024-02-21T04:40:17;96089.59;;;4.96;73.55
51083;BME280;37131;42.694;23.350;2024-02-21T04:42:44;96089.78;;;5.06;72.60
51083;BME280;37131;42.694;23.350;2024-02-21T04:45:09;96088.16;;;5.05;74.17
51083;BME280;37131;42.694;23.350;2024-02-21T04:47:35;96084.25;;;5.12;72.59
51083;BME280;37131;42.694;23.350;2024-02-21T04:50:00;96087.94;;;5.08;74.43
51083;BME280;37131;42.694;23.350;2024-02-21T04:52:25;96087.44;;;5.03;72.54
51083;BME280;37131;42.694;23.350;2024-02-21T04:54:51;96088.78;;;4.96;73.80
51083;BME280;37131;42.694;23.350;2024-02-21T04:57:17;96086.03;;;4.86;74.89
51083;BME280;37131;42.694;23.350;2024-02-21T04:59:46;96084.00;;;4.79;75.13
51083;BME280;37131;42.694;23.350;2024-02-21T05:02:14;96085.97;;;4.75;74.09
51083;BME280;37131;42.694;23.350;2024-02-21T05:04:40;96086.88;;;4.74;74.23
51083;BME280;37131;42.694;23.350;2024-02-21T05:07:07;96092.22;;;4.71;74.34
51083;BME280;37131;42.694;23.350;2024-02-21T05:09:32;96093.53;;;4.77;75.84
51083;BME280;37131;42.694;23.350;2024-02-21T05:11:57;96088.00;;;4.83;74.92
51083;BME280;37131;42.694;23.350;2024-02-21T05:14:26;96093.63;;;4.75;75.33
51083;BME280;37131;42.694;23.350;2024-02-21T05:16:54;96097.22;;;4.73;74.48
51083;BME280;37131;42.694;23.350;2024-02-21T05:19:20;96101.25;;;4.64;75.57
51083;BME280;37131;42.694;23.350;2024-02-21T05:21:45;96104.13;;;4.59;75.61
51083;BME280;37131;42.694;23.350;2024-02-21T05:24:11;96105.41;;;4.78;74.70
51083;BME280;37131;42.694;23.350;2024-02-21T05:26:36;96106.72;;;4.83;74.42
51083;BME280;37131;42.694;23.350;2024-02-21T05:29:02;96100.19;;;4.79;74.75
51083;BME280;37131;42.694;23.350;2024-02-21T05:34:19;96105.59;;;4.75;74.81
51083;BME280;37131;42.694;23.350;2024-02-21T05:36:45;96098.84;;;4.74;74.49
51083;BME280;37131;42.694;23.350;2024-02-21T05:39:11;96105.41;;;4.78;75.45
51083;BME280;37131;42.694;23.350;2024-02-21T05:41:37;96105.09;;;4.82;74.45
51083;BME280;37131;42.694;23.350;2024-02-21T05:44:02;96101.81;;;4.80;75.01
51083;BME280;37131;42.694;23.350;2024-02-21T05:46:27;96104.56;;;4.90;75.09
51083;BME280;37131;42.694;23.350;2024-02-21T05:48:53;96111.41;;;4.89;74.66
51083;BME280;37131;42.694;23.350;2024-02-21T05:51:19;96102.13;;;4.76;74.61
51083;BME280;37131;42.694;23.350;2024-02-21T05:53:44;96112.66;;;4.84;74.80
51083;BME280;37131;42.694;23.350;2024-02-21T05:56:10;96113.59;;;4.70;74.84
51083;BME280;37131;42.694;23.350;2024-02-21T05:58:36;96125.91;;;4.65;75.51
51083;BME280;37131;42.694;23.350;2024-02-21T06:01:02;96122.31;;;4.68;76.62
51083;BME280;37131;42.694;23.350;2024-02-21T06:03:29;96116.06;;;4.72;75.61
51083;BME280;37131;42.694;23.350;2024-02-21T06:05:54;96120.53;;;4.81;75.15
51083;BME280;37131;42.694;23.350;2024-02-21T06:08:20;96125.00;;;4.66;75.74
51083;BME280;37131;42.694;23.350;2024-02-21T06:10:45;96126.38;;;4.70;75.58
51083;BME280;37131;42.694;23.350;2024-02-21T06:13:10;96130.06;;;4.79;76.26
51083;BME280;37131;42.694;23.350;2024-02-21T06:15:36;96136.63;;;4.83;75.14
51083;BME280;37131;42.694;23.350;2024-02-21T06:18:01;96132.50;;;4.93;74.10
51083;BME280;37131;42.694;23.350;2024-02-21T06:20:27;96136.72;;;4.81;74.94
51083;BME280;37131;42.694;23.350;2024-02-21T06:22:53;96135.06;;;4.80;74.09
51083;BME280;37131;42.694;23.350;2024-02-21T06:25:18;96139.78;;;4.74;75.59
51083;BME280;37131;42.694;23.350;2024-02-21T06:27:44;96142.84;;;4.79;75.37
51083;BME280;37131;42.694;23.350;2024-02-21T06:30:09;96141.41;;;5.00;73.61
51083;BME280;37131;42.694;23.350;2024-02-21T06:32:35;96147.22;;;5.02;74.98
51083;BME280;37131;42.694;23.350;2024-02-21T06:35:00;96147.56;;;4.97;73.39
51083;BME280;37131;42.694;23.350;2024-02-21T06:37:27;96155.44;;;4.94;74.55
51083;BME280;37131;42.694;23.350;2024-02-21T06:39:52;96149.28;;;4.97;75.18
51083;BME280;37131;42.694;23.350;2024-02-21T06:42:18;96160.34;;;4.97;73.47
51083;BME280;37131;42.694;23.350;2024-02-21T06:44:44;96158.91;;;5.06;73.93
51083;BME280;37131;42.694;23.350;2024-02-21T06:47:09;96166.94;;;5.25;73.61
51083;BME280;37131;42.694;23.350;2024-02-21T06:49:35;96167.81;;;5.37;73.75
51083;BME280;37131;42.694;23.350;2024-02-21T06:52:02;96169.66;;;5.35;72.41
51083;BME280;37131;42.694;23.350;2024-02-21T06:54:28;96166.59;;;5.30;72.95
51083;BME280;37131;42.694;23.350;2024-02-21T06:56:53;96169.09;;;5.55;71.69
51083;BME280;37131;42.694;23.350;2024-02-21T06:59:19;96166.09;;;5.61;72.29
51083;BME280;37131;42.694;23.350;2024-02-21T07:01:46;96163.34;;;5.76;71.58
51083;BME280;37131;42.694;23.350;2024-02-21T07:04:11;96164.53;;;5.95;71.50
51083;BME280;37131;42.694;23.350;2024-02-21T07:06:36;96168.50;;;6.00;69.75
51083;BME280;37131;42.694;23.350;2024-02-21T07:09:02;96156.75;;;6.08;69.41
51083;BME280;37131;42.694;23.350;2024-02-21T07:11:27;96171.16;;;6.33;68.82
51083;BME280;37131;42.694;23.350;2024-02-21T07:13:53;96171.59;;;6.27;68.32
51083;BME280;37131;42.694;23.350;2024-02-21T07:16:18;96168.19;;;6.04;68.93
51083;BME280;37131;42.694;23.350;2024-02-21T07:18:44;96162.53;;;6.23;68.53
51083;BME280;37131;42.694;23.350;2024-02-21T07:21:09;96162.53;;;6.34;67.45
51083;BME280;37131;42.694;23.350;2024-02-21T07:23:34;96165.38;;;6.53;68.63
51083;BME280;37131;42.694;23.350;2024-02-21T07:26:00;96175.63;;;6.42;68.02
51083;BME280;37131;42.694;23.350;2024-02-21T07:28:25;96171.41;;;6.41;68.99
51083;BME280;37131;42.694;23.350;2024-02-21T07:30:50;96174.16;;;6.73;68.00
51083;BME280;37131;42.694;23.350;2024-02-21T07:33:16;96171.13;;;6.90;66.71
51083;BME280;37131;42.694;23.350;2024-02-21T07:35:41;96168.66;;;7.00;65.21
51083;BME280;37131;42.694;23.350;2024-02-21T07:38:09;96174.84;;;6.97;67.07
51083;BME280;37131;42.694;23.350;2024-02-21T07:40:37;96169.84;;;7.18;64.54
51083;BME280;37131;42.694;23.350;2024-02-21T07:43:03;96172.88;;;7.12;65.74
51083;BME280;37131;42.694;23.350;2024-02-21T07:45:28;96170.06;;;7.15;65.88
51083;BME280;37131;42.694;23.350;2024-02-21T07:47:54;96168.19;;;7.06;65.71
51083;BME280;37131;42.694;23.350;2024-02-21T07:50:19;96175.22;;;7.15;64.83
51083;BME280;37131;42.694;23.350;2024-02-21T07:52:45;96172.88;;;7.01;65.28
51083;BME280;37131;42.694;23.350;2024-02-21T07:55:10;96163.41;;;7.02;65.37
51083;BME280;37131;42.694;23.350;2024-02-21T07:57:35;96168.44;;;7.25;65.20
51083;BME280;37131;42.694;23.350;2024-02-21T08:00:01;96164.34;;;7.12;66.60
51083;BME280;37131;42.694;23.350;2024-02-21T08:02:26;96159.78;;;7.15;64.49
51083;BME280;37131;42.694;23.350;2024-02-21T08:04:52;96159.56;;;7.07;65.99
51083;BME280;37131;42.694;23.350;2024-02-21T08:07:17;96159.16;;;7.34;64.72
51083;BME280;37131;42.694;23.350;2024-02-21T08:09:42;96163.34;;;7.46;64.49
51083;BME280;37131;42.694;23.350;2024-02-21T08:12:11;96165.31;;;7.54;64.06
51083;BME280;37131;42.694;23.350;2024-02-21T08:14:36;96171.66;;;7.50;64.40
51083;BME280;37131;42.694;23.350;2024-02-21T08:17:02;96170.88;;;7.16;64.67
51083;BME280;37131;42.694;23.350;2024-02-21T08:19:29;96164.06;;;7.37;64.24
51083;BME280;37131;42.694;23.350;2024-02-21T08:21:54;96156.31;;;7.59;64.27
51083;BME280;37131;42.694;23.350;2024-02-21T08:24:19;96167.91;;;7.54;63.92
51083;BME280;37131;42.694;23.350;2024-02-21T08:26:45;96159.88;;;7.79;62.87
51083;BME280;37131;42.694;23.350;2024-02-21T08:29:12;96159.00;;;7.58;63.48
51083;BME280;37131;42.694;23.350;2024-02-21T08:31:37;96158.75;;;7.93;63.05
51083;BME280;37131;42.694;23.350;2024-02-21T08:34:03;96161.94;;;8.17;62.60
51083;BME280;37131;42.694;23.350;2024-02-21T08:36:33;96162.19;;;7.82;62.17
51083;BME280;37131;42.694;23.350;2024-02-21T08:38:59;96155.00;;;7.97;61.57
51083;BME280;37131;42.694;23.350;2024-02-21T08:41:25;96160.34;;;8.05;61.00
51083;BME280;37131;42.694;23.350;2024-02-21T08:43:54;96160.69;;;8.12;61.19
51083;BME280;37131;42.694;23.350;2024-02-21T08:46:20;96168.66;;;7.77;61.89
51083;BME280;37131;42.694;23.350;2024-02-21T08:48:54;96157.72;;;7.63;61.61
51083;BME280;37131;42.694;23.350;2024-02-21T08:51:20;96155.72;;;7.99;61.32
51083;BME280;37131;42.694;23.350;2024-02-21T08:53:45;96160.81;;;8.10;62.00
51083;BME280;37131;42.694;23.350;2024-02-21T08:56:11;96165.22;;;8.19;59.90
51083;BME280;37131;42.694;23.350;2024-02-21T08:58:37;96166.19;;;8.07;59.94
51083;BME280;37131;42.694;23.350;2024-02-21T09:01:08;96167.75;;;7.98;59.76
51083;BME280;37131;42.694;23.350;2024-02-21T09:03:37;96165.47;;;8.16;60.91
51083;BME280;37131;42.694;23.350;2024-02-21T09:06:04;96159.72;;;7.92;60.44
51083;BME280;37131;42.694;23.350;2024-02-21T09:08:29;96160.34;;;8.05;60.03
51083;BME280;37131;42.694;23.350;2024-02-21T09:10:55;96159.03;;;8.11;60.72
51083;BME280;37131;42.694;23.350;2024-02-21T09:13:20;96165.59;;;8.36;59.59
51083;BME280;37131;42.694;23.350;2024-02-21T09:15:47;96162.44;;;8.11;60.25
51083;BME280;37131;42.694;23.350;2024-02-21T09:18:12;96169.72;;;8.06;58.99
51083;BME280;37131;42.694;23.350;2024-02-21T09:20:41;96162.19;;;7.82;60.09
51083;BME280;37131;42.694;23.350;2024-02-21T09:23:06;96157.13;;;7.92;59.86
51083;BME280;37131;42.694;23.350;2024-02-21T09:25:31;96160.56;;;8.13;59.01
51083;BME280;37131;42.694;23.350;2024-02-21T09:27:57;96165.63;;;7.72;60.11
51083;BME280;37131;42.694;23.350;2024-02-21T09:30:23;96159.81;;;7.90;60.51
51083;BME280;37131;42.694;23.350;2024-02-21T09:32:49;96158.69;;;8.15;59.36
51083;BME280;37131;42.694;23.350;2024-02-21T09:35:14;96165.38;;;8.07;59.49
51083;BME280;37131;42.694;23.350;2024-02-21T09:37:40;96161.09;;;7.96;59.43
51083;BME280;37131;42.694;23.350;2024-02-21T09:40:06;96162.25;;;8.24;59.07
51083;BME280;37131;42.694;23.350;2024-02-21T09:42:39;96164.16;;;8.22;59.66
51083;BME280;37131;42.694;23.350;2024-02-21T09:45:08;96164.97;;;8.22;59.08
51083;BME280;37131;42.694;23.350;2024-02-21T09:47:43;96159.50;;;8.37;57.98
51083;BME280;37131;42.694;23.350;2024-02-21T09:50:12;96164.22;;;8.32;58.54
51083;BME280;37131;42.694;23.350;2024-02-21T09:52:39;96164.53;;;8.38;58.23
51083;BME280;37131;42.694;23.350;2024-02-21T09:55:06;96149.34;;;8.35;58.19
51083;BME280;37131;42.694;23.350;2024-02-21T09:57:33;96158.25;;;8.52;58.17
51083;BME280;37131;42.694;23.350;2024-02-21T10:00:00;96159.06;;;8.32;58.16
51083;BME280;37131;42.694;23.350;2024-02-21T10:02:32;96150.59;;;8.41;58.28
51083;BME280;37131;42.694;23.350;2024-02-21T10:04:58;96149.47;;;8.54;57.46
51083;BME280;37131;42.694;23.350;2024-02-21T10:07:24;96138.91;;;8.88;58.20
51083;BME280;37131;42.694;23.350;2024-02-21T10:10:00;96141.28;;;9.01;55.30
51083;BME280;37131;42.694;23.350;2024-02-21T10:12:25;96134.75;;;8.96;55.22
51083;BME280;37131;42.694;23.350;2024-02-21T10:15:03;96138.34;;;8.84;55.64
51083;BME280;37131;42.694;23.350;2024-02-21T10:17:29;96145.81;;;8.87;54.99
51083;BME280;37131;42.694;23.350;2024-02-21T10:19:54;96132.13;;;8.77;55.32
51083;BME280;37131;42.694;23.350;2024-02-21T10:22:19;96121.97;;;8.85;55.20
51083;BME280;37131;42.694;23.350;2024-02-21T10:24:50;96123.28;;;8.70;55.23
51083;BME280;37131;42.694;23.350;2024-02-21T10:27:15;96124.56;;;8.95;55.13
51083;BME280;37131;42.694;23.350;2024-02-21T10:29:41;96112.72;;;9.13;53.89
51083;BME280;37131;42.694;23.350;2024-02-21T10:32:11;96113.22;;;9.07;55.00
51083;BME280;37131;42.694;23.350;2024-02-21T10:34:38;96104.16;;;9.13;54.80
51083;BME280;37131;42.694;23.350;2024-02-21T10:37:05;96092.28;;;9.31;53.51
51083;BME280;37131;42.694;23.350;2024-02-21T10:39:32;96093.09;;;9.32;52.39
51083;BME280;37131;42.694;23.350;2024-02-21T10:42:00;96085.38;;;9.32;52.45
51083;BME280;37131;42.694;23.350;2024-02-21T10:44:30;96076.69;;;9.52;51.69
51083;BME280;37131;42.694;23.350;2024-02-21T10:46:57;96075.34;;;9.77;51.61
51083;BME280;37131;42.694;23.350;2024-02-21T10:49:24;96072.47;;;9.89;50.36
51083;BME280;37131;42.694;23.350;2024-02-21T10:52:06;96071.66;;;9.89;50.09
51083;BME280;37131;42.694;23.350;2024-02-21T10:54:55;96059.88;;;9.67;51.70
51083;BME280;37131;42.694;23.350;2024-02-21T10:57:22;96049.69;;;9.66;49.74
51083;BME280;37131;42.694;23.350;2024-02-21T10:59:48;96051.72;;;9.72;50.46
51083;BME280;37131;42.694;23.350;2024-02-21T11:02:15;96052.78;;;9.88;50.45
51083;BME280;37131;42.694;23.350;2024-02-21T11:04:40;96036.78;;;9.85;50.00
51083;BME280;37131;42.694;23.350;2024-02-21T11:07:07;96041.53;;;9.80;49.05
51083;BME280;37131;42.694;23.350;2024-02-21T11:09:33;96031.16;;;9.99;47.59
51083;BME280;37131;42.694;23.350;2024-02-21T11:12:03;96028.44;;;10.30;47.68
51083;BME280;37131;42.694;23.350;2024-02-21T11:14:29;96039.16;;;10.62;46.58
51083;BME280;37131;42.694;23.350;2024-02-21T11:17:01;96032.91;;;10.27;46.09
51083;BME280;37131;42.694;23.350;2024-02-21T11:19:28;96032.78;;;10.19;44.68
51083;BME280;37131;42.694;23.350;2024-02-21T11:21:54;96036.44;;;10.26;45.93
51083;BME280;37131;42.694;23.350;2024-02-21T11:24:30;96022.84;;;10.61;44.39
51083;BME280;37131;42.694;23.350;2024-02-21T11:27:07;96027.44;;;10.95;42.75
51083;BME280;37131;42.694;23.350;2024-02-21T11:29:39;96019.75;;;10.85;43.21
51083;BME280;37131;42.694;23.350;2024-02-21T11:32:09;96018.94;;;10.85;42.60
51083;BME280;37131;42.694;23.350;2024-02-21T11:34:35;96013.13;;;11.01;43.54
51083;BME280;37131;42.694;23.350;2024-02-21T11:37:00;96020.91;;;10.73;43.05
51083;BME280;37131;42.694;23.350;2024-02-21T11:39:26;96017.47;;;10.82;43.75
51083;BME280;37131;42.694;23.350;2024-02-21T11:42:01;96019.81;;;10.93;42.74
51083;BME280;37131;42.694;23.350;2024-02-21T11:44:27;96008.47;;;10.59;44.14
51083;BME280;37131;42.694;23.350;2024-02-21T11:46:52;96013.25;;;10.81;44.75
51083;BME280;37131;42.694;23.350;2024-02-21T11:49:18;96013.00;;;10.75;45.26
51083;BME280;37131;42.694;23.350;2024-02-21T11:51:43;96002.38;;;10.78;44.42
51083;BME280;37131;42.694;23.350;2024-02-21T11:54:10;96001.09;;;10.91;44.76
51083;BME280;37131;42.694;23.350;2024-02-21T11:56:36;95995.53;;;10.86;44.56
51083;BME280;37131;42.694;23.350;2024-02-21T11:59:01;95996.69;;;10.47;45.39
51083;BME280;37131;42.694;23.350;2024-02-21T12:01:27;96000.97;;;10.28;45.97
51083;BME280;37131;42.694;23.350;2024-02-21T12:03:53;96000.59;;;10.51;44.66
51083;BME280;37131;42.694;23.350;2024-02-21T12:06:18;95999.69;;;10.42;45.27
51083;BME280;37131;42.694;23.350;2024-02-21T12:08:46;95998.25;;;10.57;44.72
51083;BME280;37131;42.694;23.350;2024-02-21T12:11:21;95991.88;;;10.24;46.41
51083;BME280;37131;42.694;23.350;2024-02-21T12:13:58;95992.75;;;10.43;45.91
51083;BME280;37131;42.694;23.350;2024-02-21T12:16:25;95992.88;;;9.94;46.24
51083;BME280;37131;42.694;23.350;2024-02-21T12:18:53;95999.66;;;10.05;47.14
51083;BME280;37131;42.694;23.350;2024-02-21T12:21:18;95994.75;;;10.12;47.92
51083;BME280;37131;42.694;23.350;2024-02-21T12:23:44;95988.34;;;10.25;47.24
51083;BME280;37131;42.694;23.350;2024-02-21T12:26:09;95992.72;;;10.06;46.81
51083;BME280;37131;42.694;23.350;2024-02-21T12:28:34;95986.47;;;10.08;46.67
51083;BME280;37131;42.694;23.350;2024-02-21T12:31:00;95982.94;;;10.09;46.59
51083;BME280;37131;42.694;23.350;2024-02-21T12:33:25;95977.53;;;10.03;46.84
51083;BME280;37131;42.694;23.350;2024-02-21T12:35:51;95975.06;;;10.01;47.16
51083;BME280;37131;42.694;23.350;2024-02-21T12:38:18;95963.81;;;9.92;47.51
51083;BME280;37131;42.694;23.350;2024-02-21T12:40:45;95973.81;;;10.15;46.35
51083;BME280;37131;42.694;23.350;2024-02-21T12:43:11;95969.75;;;10.12;46.22
51083;BME280;37131;42.694;23.350;2024-02-21T12:45:36;95972.59;;;10.28;46.47
51083;BME280;37131;42.694;23.350;2024-02-21T12:48:02;95977.06;;;10.17;48.45
51083;BME280;37131;42.694;23.350;2024-02-21T12:50:27;95976.13;;;10.18;48.75
51083;BME280;37131;42.694;23.350;2024-02-21T12:52:52;95971.78;;;10.18;48.85
51083;BME280;37131;42.694;23.350;2024-02-21T12:55:18;95979.41;;;10.20;49.45
51083;BME280;37131;42.694;23.350;2024-02-21T12:57:43;95971.81;;;9.99;50.42